createdAt,value
2018-05-29T00:00:03.182Z,11.20
2018-05-29T00:02:31.453Z,9.57
2018-05-29T00:04:59.734Z,11.20
2018-05-29T00:07:28.018Z,9.70
2018-05-29T00:09:56.294Z,11.57
2018-05-29T00:12:24.585Z,11.30
2018-05-29T00:14:52.862Z,10.17
2018-05-29T00:17:21.149Z,10.40
2018-05-29T00:19:49.425Z,10.60
2018-05-29T00:22:17.704Z,11.03
2018-05-29T00:24:45.989Z,9.97
2018-05-29T00:27:14.265Z,9.60
2018-05-29T00:29:42.555Z,9.03
2018-05-29T00:32:10.830Z,10.17
2018-05-29T00:34:39.522Z,9.57
2018-05-29T00:37:07.785Z,8.37
2018-05-29T00:39:36.079Z,10.03
2018-05-29T00:42:04.682Z,10.30
2018-05-29T00:44:32.968Z,10.27
2018-05-29T00:47:01.257Z,10.00
2018-05-29T00:49:29.537Z,9.07
2018-05-29T00:51:58.265Z,12.00
2018-05-29T00:54:26.566Z,10.40
2018-05-29T00:56:54.847Z,10.50
2018-05-29T00:59:23.135Z,9.90
2018-05-29T01:01:51.407Z,9.07
2018-05-29T01:04:19.694Z,10.67
2018-05-29T01:06:47.981Z,10.93
2018-05-29T01:09:16.257Z,9.33
2018-05-29T01:11:44.530Z,8.87
2018-05-29T01:14:12.821Z,8.90
2018-05-29T01:16:41.096Z,9.33
2018-05-29T01:19:09.369Z,10.07
2018-05-29T01:21:37.658Z,11.50
2018-05-29T01:24:05.938Z,8.90
2018-05-29T01:26:34.227Z,10.10
2018-05-29T01:29:02.517Z,11.20
2018-05-29T01:31:30.818Z,9.10
2018-05-29T01:33:59.097Z,9.13
2018-05-29T01:36:27.370Z,9.20
2018-05-29T01:38:55.676Z,12.40
2018-05-29T01:41:23.941Z,10.63
2018-05-29T01:43:52.226Z,12.90
2018-05-29T01:46:20.506Z,11.60
2018-05-29T01:48:48.805Z,10.80
2018-05-29T01:51:17.087Z,9.13
2018-05-29T01:53:45.369Z,8.57
2018-05-29T01:56:13.649Z,10.70
2018-05-29T01:58:41.940Z,9.10
2018-05-29T02:01:10.221Z,9.00
2018-05-29T02:03:38.510Z,10.57
2018-05-29T02:06:06.798Z,9.57
2018-05-29T02:08:35.073Z,11.97
2018-05-29T02:11:03.349Z,9.93
2018-05-29T02:13:31.629Z,9.07
2018-05-29T02:16:00.209Z,8.87
2018-05-29T02:18:28.482Z,12.13
2018-05-29T02:20:56.765Z,11.20
2018-05-29T02:23:25.057Z,10.33
2018-05-29T02:25:53.339Z,11.27
2018-05-29T02:28:21.621Z,10.20
2018-05-29T02:30:49.897Z,10.60
2018-05-29T02:33:18.189Z,10.30
2018-05-29T02:35:46.494Z,12.53
2018-05-29T02:38:14.789Z,9.80
2018-05-29T02:40:43.079Z,10.77
2018-05-29T02:43:11.354Z,10.40
2018-05-29T02:45:39.651Z,11.17
2018-05-29T02:48:07.921Z,11.77
2018-05-29T02:50:36.214Z,12.00
2018-05-29T02:53:04.499Z,13.00
2018-05-29T02:55:32.781Z,11.60
2018-05-29T02:58:01.077Z,10.00
2018-05-29T03:00:29.358Z,9.17
2018-05-29T03:02:57.638Z,9.83
2018-05-29T03:05:25.917Z,10.67
2018-05-29T03:07:54.216Z,10.13
2018-05-29T03:10:22.506Z,10.33
2018-05-29T03:12:50.803Z,11.53
2018-05-29T03:15:19.085Z,10.83
2018-05-29T03:17:47.395Z,9.70
2018-05-29T03:20:15.679Z,10.00
2018-05-29T03:22:43.973Z,9.70
2018-05-29T03:25:12.249Z,9.40
2018-05-29T03:27:40.525Z,9.90
2018-05-29T03:30:08.812Z,8.87
2018-05-29T03:32:37.086Z,11.70
2018-05-29T03:35:05.379Z,10.50
2018-05-29T03:37:33.664Z,10.93
2018-05-29T03:40:01.946Z,12.80
2018-05-29T03:42:30.229Z,12.03
2018-05-29T03:44:58.525Z,10.50
2018-05-29T03:47:26.806Z,10.43
2018-05-29T03:49:55.466Z,8.97
2018-05-29T03:52:23.745Z,11.70
2018-05-29T03:54:52.026Z,12.87
2018-05-29T03:57:20.313Z,14.37
2018-05-29T03:59:49.461Z,13.57
2018-05-29T04:02:17.753Z,11.50
2018-05-29T04:04:46.034Z,12.60
2018-05-29T04:07:14.323Z,12.00
2018-05-29T04:09:42.606Z,13.67
2018-05-29T04:12:10.903Z,12.60
2018-05-29T04:14:39.179Z,10.73
2018-05-29T04:17:07.471Z,12.60
2018-05-29T04:19:35.753Z,11.63
2018-05-29T04:22:04.050Z,11.47
2018-05-29T04:24:32.353Z,12.43
2018-05-29T04:27:00.833Z,14.17
2018-05-29T04:29:29.127Z,14.67
2018-05-29T04:31:57.403Z,12.57
2018-05-29T04:34:25.698Z,11.47
2018-05-29T04:36:53.993Z,11.33
2018-05-29T04:39:22.287Z,10.40
2018-05-29T04:41:50.561Z,10.83
2018-05-29T04:44:18.864Z,11.80
2018-05-29T04:46:47.138Z,11.83
2018-05-29T04:49:15.418Z,14.53
2018-05-29T04:51:43.708Z,12.87
2018-05-29T04:54:11.993Z,12.30
2018-05-29T04:56:40.295Z,11.67
2018-05-29T04:59:08.565Z,12.03
2018-05-29T05:01:36.850Z,13.27
2018-05-29T05:04:05.150Z,15.17
2018-05-29T05:06:33.433Z,15.20
2018-05-29T05:09:01.747Z,12.07
2018-05-29T05:11:30.014Z,12.10
2018-05-29T05:13:58.291Z,11.90
2018-05-29T05:16:26.574Z,13.87
2018-05-29T05:18:54.886Z,15.40
2018-05-29T05:21:23.157Z,13.20
2018-05-29T05:23:51.446Z,12.33
2018-05-29T05:26:19.735Z,12.00
2018-05-29T05:28:48.023Z,15.33
2018-05-29T05:31:16.297Z,15.87
2018-05-29T05:33:44.596Z,12.83
2018-05-29T05:36:12.873Z,13.67
2018-05-29T05:38:41.463Z,15.00
2018-05-29T05:41:09.737Z,17.10
2018-05-29T05:43:38.010Z,15.37
2018-05-29T05:46:06.331Z,14.73
2018-05-29T05:48:34.581Z,14.87
2018-05-29T05:51:02.868Z,14.73
2018-05-29T05:53:31.143Z,13.30
2018-05-29T05:55:59.441Z,16.50
2018-05-29T05:58:27.739Z,14.37
2018-05-29T06:00:56.006Z,14.17
2018-05-29T06:03:24.288Z,16.67
2018-05-29T06:05:52.569Z,13.50
2018-05-29T06:08:20.857Z,13.57
2018-05-29T06:10:49.143Z,15.93
2018-05-29T06:13:17.430Z,13.30
2018-05-29T06:15:45.710Z,13.90
2018-05-29T06:18:13.998Z,12.63
2018-05-29T06:20:42.273Z,15.10
2018-05-29T06:23:10.562Z,13.90
2018-05-29T06:25:38.853Z,13.87
2018-05-29T06:28:07.141Z,14.40
2018-05-29T06:30:35.426Z,14.70
2018-05-29T06:33:03.714Z,15.50
2018-05-29T06:35:31.989Z,14.30
2018-05-29T06:38:00.282Z,13.47
2018-05-29T06:40:29.474Z,16.07
2018-05-29T06:42:57.757Z,14.50
2018-05-29T06:45:26.045Z,15.97
2018-05-29T06:47:54.327Z,15.57
2018-05-29T06:50:22.613Z,16.37
2018-05-29T06:52:50.898Z,16.30
2018-05-29T06:55:19.182Z,14.20
2018-05-29T06:57:47.468Z,15.67
2018-05-29T07:00:15.753Z,14.10
2018-05-29T07:02:44.034Z,13.47
2018-05-29T07:05:12.341Z,14.13
2018-05-29T07:07:40.620Z,14.00
2018-05-29T07:10:08.910Z,13.13
2018-05-29T07:12:37.201Z,12.50
2018-05-29T07:15:05.474Z,12.87
2018-05-29T07:17:33.762Z,13.30
2018-05-29T07:20:02.038Z,12.63
2018-05-29T07:22:30.330Z,12.97
2018-05-29T07:24:58.609Z,13.67
2018-05-29T07:27:26.905Z,13.13
2018-05-29T07:29:55.191Z,14.17
2018-05-29T07:32:23.834Z,13.77
2018-05-29T07:34:52.106Z,12.73
2018-05-29T07:37:20.386Z,13.07
2018-05-29T07:39:48.697Z,12.07
2018-05-29T07:42:16.953Z,11.90
2018-05-29T07:44:45.249Z,12.37
2018-05-29T07:47:13.530Z,13.40
2018-05-29T07:49:41.825Z,13.03
2018-05-29T07:52:10.110Z,12.97
2018-05-29T07:54:38.399Z,12.13
2018-05-29T07:57:06.670Z,12.33
2018-05-29T07:59:34.957Z,10.60
2018-05-29T08:02:03.237Z,11.93
2018-05-29T08:04:31.514Z,11.43
2018-05-29T08:06:59.805Z,12.17
2018-05-29T08:09:28.090Z,11.00
2018-05-29T08:11:56.378Z,11.70
2018-05-29T08:14:24.666Z,11.77
2018-05-29T08:16:52.961Z,11.40
2018-05-29T08:19:21.310Z,10.60
2018-05-29T08:21:49.594Z,11.63
2018-05-29T08:24:17.882Z,12.13
2018-05-29T08:26:46.184Z,12.00
2018-05-29T08:29:14.466Z,11.87
2018-05-29T08:31:42.742Z,10.33
2018-05-29T08:34:11.034Z,11.23
2018-05-29T08:36:39.314Z,12.30
2018-05-29T08:39:07.628Z,11.83
2018-05-29T08:41:35.911Z,11.87
2018-05-29T08:44:04.198Z,11.10
2018-05-29T08:46:32.479Z,11.27
2018-05-29T08:49:00.770Z,12.47
2018-05-29T08:51:29.141Z,11.43
2018-05-29T08:53:57.434Z,11.87
2018-05-29T08:56:25.710Z,11.43
2018-05-29T08:58:54.009Z,12.23
2018-05-29T09:01:22.305Z,11.87
2018-05-29T09:03:50.598Z,13.60
2018-05-29T09:06:18.894Z,13.57
2018-05-29T09:08:47.178Z,11.73
2018-05-29T09:11:15.471Z,11.10
2018-05-29T09:13:43.762Z,12.50
2018-05-29T09:16:12.065Z,11.87
2018-05-29T09:18:40.347Z,12.03
2018-05-29T09:21:08.655Z,12.20
2018-05-29T09:23:36.945Z,12.30
2018-05-29T09:26:05.311Z,11.90
2018-05-29T09:28:34.339Z,12.47
2018-05-29T09:31:02.615Z,12.63
2018-05-29T09:33:30.914Z,11.77
2018-05-29T09:35:59.217Z,12.13
2018-05-29T09:38:27.604Z,12.33
2018-05-29T09:40:55.886Z,11.60
2018-05-29T09:43:24.195Z,12.00
2018-05-29T09:45:52.571Z,11.50
2018-05-29T09:48:20.825Z,13.03
2018-05-29T09:50:49.115Z,12.90
2018-05-29T09:53:17.406Z,12.87
2018-05-29T09:55:45.749Z,11.93
2018-05-29T09:58:14.026Z,12.60
2018-05-29T10:00:42.335Z,12.53
2018-05-29T10:03:10.619Z,11.93
2018-05-29T10:05:38.917Z,12.07
2018-05-29T10:08:08.762Z,12.70
2018-05-29T10:10:37.182Z,12.73
2018-05-29T10:13:05.468Z,12.60
2018-05-29T10:15:33.776Z,13.40
2018-05-29T10:18:02.058Z,13.33
2018-05-29T10:20:30.783Z,12.73
2018-05-29T10:22:59.062Z,13.13
2018-05-29T10:25:27.354Z,12.47
2018-05-29T10:27:55.646Z,13.80
2018-05-29T10:30:23.942Z,12.87
2018-05-29T10:32:52.239Z,13.43
2018-05-29T10:35:20.538Z,12.13
2018-05-29T10:37:48.837Z,12.60
2018-05-29T10:40:17.124Z,12.73
2018-05-29T10:42:45.410Z,13.57
2018-05-29T10:45:13.710Z,12.00
2018-05-29T10:47:42.362Z,13.77
2018-05-29T10:50:10.645Z,13.47
2018-05-29T10:52:38.925Z,12.80
2018-05-29T10:55:07.437Z,13.07
2018-05-29T10:57:35.915Z,11.90
2018-05-29T11:00:04.206Z,11.97
2018-05-29T11:02:32.506Z,11.97
2018-05-29T11:05:00.830Z,12.73
2018-05-29T11:07:29.127Z,13.40
2018-05-29T11:09:59.794Z,14.47
2018-05-29T11:12:28.837Z,12.83
2018-05-29T11:14:57.324Z,13.57
2018-05-29T11:17:25.704Z,12.97
2018-05-29T11:19:53.990Z,11.27
2018-05-29T11:22:22.519Z,11.57
2018-05-29T11:24:50.786Z,11.93
2018-05-29T11:27:19.078Z,12.60
2018-05-29T11:29:47.723Z,12.30
2018-05-29T11:32:16.650Z,11.80
2018-05-29T11:34:44.996Z,11.73
2018-05-29T11:37:13.376Z,12.60
2018-05-29T11:39:42.493Z,11.90
2018-05-29T11:42:11.819Z,13.13
2018-05-29T11:44:40.298Z,11.90
2018-05-29T11:47:08.719Z,12.10
2018-05-29T11:49:37.780Z,13.00
2018-05-29T11:52:06.254Z,12.90
2018-05-29T11:54:34.616Z,13.00
2018-05-29T11:57:03.100Z,13.30
2018-05-29T11:59:31.383Z,13.27
2018-05-29T12:01:59.675Z,12.40
2018-05-29T12:04:28.264Z,12.63
2018-05-29T12:06:56.591Z,13.37
2018-05-29T12:09:24.917Z,11.80
2018-05-29T12:12:05.053Z,12.43
2018-05-29T12:14:33.333Z,12.30
2018-05-29T12:17:01.618Z,12.53
2018-05-29T12:19:29.917Z,12.07
2018-05-29T12:21:58.207Z,12.03
2018-05-29T12:24:26.494Z,12.07
2018-05-29T12:26:58.907Z,11.90
2018-05-29T12:29:27.190Z,11.77
2018-05-29T12:31:55.622Z,11.60
2018-05-29T12:34:23.973Z,11.57
2018-05-29T12:36:52.206Z,11.40
2018-05-29T12:39:20.494Z,11.30
2018-05-29T12:41:48.778Z,11.77
2018-05-29T12:44:17.073Z,11.97
2018-05-29T12:46:45.423Z,11.17
2018-05-29T12:49:13.787Z,10.27
2018-05-29T12:51:42.117Z,10.77
2018-05-29T12:54:10.405Z,11.47
2018-05-29T12:56:38.766Z,11.03
2018-05-29T12:59:07.089Z,10.90
2018-05-29T13:01:35.350Z,10.70
2018-05-29T13:04:03.653Z,11.43
2018-05-29T13:06:31.939Z,11.17
2018-05-29T13:09:00.218Z,10.50
2018-05-29T13:11:28.520Z,11.47
2018-05-29T13:13:56.830Z,11.63
2018-05-29T13:16:25.114Z,10.90
2018-05-29T13:18:53.404Z,10.60
2018-05-29T13:21:21.683Z,10.73
2018-05-29T13:23:49.969Z,11.20
2018-05-29T13:26:18.254Z,12.43
2018-05-29T13:28:46.542Z,11.97
2018-05-29T13:31:16.082Z,11.33
2018-05-29T13:33:44.371Z,11.93
2018-05-29T13:36:12.650Z,12.43
2018-05-29T13:38:41.238Z,12.17
2018-05-29T13:41:09.698Z,11.70
2018-05-29T13:43:37.987Z,12.37
2018-05-29T13:46:10.276Z,12.53
2018-05-29T13:48:38.572Z,12.10
2018-05-29T13:51:06.882Z,12.07
2018-05-29T13:53:35.167Z,10.90
2018-05-29T13:56:03.474Z,11.63
2018-05-29T13:58:33.751Z,10.80
2018-05-29T14:01:02.118Z,11.83
2018-05-29T14:03:30.399Z,11.63
2018-05-29T14:05:58.690Z,11.17
2018-05-29T14:08:26.978Z,8.57
2018-05-29T14:10:55.259Z,7.20
2018-05-29T14:13:23.551Z,6.73
2018-05-29T14:15:51.822Z,6.77
2018-05-29T14:18:20.114Z,6.00
2018-05-29T14:20:52.030Z,6.93
2018-05-29T14:23:20.344Z,7.00
2018-05-29T14:25:48.631Z,6.50
2018-05-29T14:28:16.911Z,6.77
2018-05-29T14:30:45.206Z,5.50
2018-05-29T14:33:13.488Z,5.97
2018-05-29T14:35:41.762Z,5.70
2018-05-29T14:38:10.037Z,6.30
2018-05-29T14:40:38.332Z,6.20
2018-05-29T14:43:06.613Z,6.17
2018-05-29T14:45:34.956Z,5.60
2018-05-29T14:48:03.223Z,6.20
2018-05-29T14:50:31.605Z,5.47
2018-05-29T14:52:59.883Z,6.00
2018-05-29T14:55:28.158Z,5.30
2018-05-29T14:57:56.434Z,5.77
2018-05-29T15:00:24.725Z,5.20
2018-05-29T15:02:53.012Z,5.63
2018-05-29T15:05:21.411Z,6.03
2018-05-29T15:07:49.698Z,6.03
2018-05-29T15:10:17.966Z,5.53
2018-05-29T15:12:46.258Z,5.30
2018-05-29T15:15:14.554Z,5.87
2018-05-29T15:17:42.831Z,5.90
2018-05-29T15:20:11.139Z,5.50
2018-05-29T15:22:39.406Z,5.40
2018-05-29T15:25:07.702Z,6.03
2018-05-29T15:27:35.969Z,5.73
2018-05-29T15:30:04.265Z,5.07
2018-05-29T15:32:32.534Z,5.50
2018-05-29T15:35:00.819Z,5.43
2018-05-29T15:37:29.101Z,5.20
2018-05-29T15:39:57.402Z,5.93
2018-05-29T15:42:25.848Z,5.30
2018-05-29T15:44:54.098Z,6.07
2018-05-29T15:47:22.426Z,5.77
2018-05-29T15:49:50.702Z,5.33
2018-05-29T15:52:18.990Z,5.57
2018-05-29T15:54:47.368Z,5.53
2018-05-29T15:57:15.622Z,5.20
2018-05-29T15:59:43.938Z,5.47
2018-05-29T16:02:12.214Z,5.03
2018-05-29T16:04:40.489Z,5.60
2018-05-29T16:07:08.778Z,5.40
2018-05-29T16:09:37.084Z,5.40
2018-05-29T16:12:05.392Z,6.37
2018-05-29T16:14:33.674Z,6.83
2018-05-29T16:17:01.943Z,6.90
2018-05-29T16:19:30.232Z,6.97
2018-05-29T16:21:58.506Z,5.67
2018-05-29T16:24:26.817Z,6.37
2018-05-29T16:26:55.088Z,5.40
2018-05-29T16:29:23.366Z,6.00
2018-05-29T16:31:51.655Z,5.13
2018-05-29T16:34:19.936Z,5.43
2018-05-29T16:36:48.224Z,6.10
2018-05-29T16:39:20.936Z,5.87
2018-05-29T16:41:49.211Z,6.10
2018-05-29T16:44:18.436Z,5.57
2018-05-29T16:46:46.733Z,6.47
2018-05-29T16:49:15.006Z,5.33
2018-05-29T16:51:43.545Z,6.10
2018-05-29T16:54:11.835Z,6.60
2018-05-29T16:56:40.321Z,6.30
2018-05-29T16:59:08.616Z,5.37
2018-05-29T17:01:36.890Z,6.40
2018-05-29T17:04:05.180Z,6.73
2018-05-29T17:06:33.453Z,6.57
2018-05-29T17:09:01.747Z,6.90
2018-05-29T17:11:30.105Z,6.90
2018-05-29T17:13:58.417Z,6.47
2018-05-29T17:16:26.693Z,8.00
2018-05-29T17:18:54.986Z,7.23
2018-05-29T17:21:23.258Z,7.40
2018-05-29T17:23:51.535Z,8.03
2018-05-29T17:26:19.838Z,7.80
2018-05-29T17:28:48.097Z,6.30
2018-05-29T17:31:16.393Z,7.40
2018-05-29T17:33:44.658Z,7.07
2018-05-29T17:36:12.950Z,8.60
2018-05-29T17:38:41.244Z,8.50
2018-05-29T17:41:09.529Z,9.63
2018-05-29T17:43:37.811Z,8.00
2018-05-29T17:46:06.093Z,9.57
2018-05-29T17:48:34.434Z,8.80
2018-05-29T17:51:04.741Z,10.03
2018-05-29T17:53:33.634Z,10.47
2018-05-29T17:56:01.960Z,7.70
2018-05-29T17:58:30.219Z,7.70
2018-05-29T18:00:58.512Z,8.53
2018-05-29T18:03:26.790Z,8.50
2018-05-29T18:05:55.062Z,7.20
2018-05-29T18:08:23.351Z,8.03
2018-05-29T18:10:51.639Z,10.60
2018-05-29T18:13:22.514Z,9.53
2018-05-29T18:15:52.721Z,10.03
2018-05-29T18:18:21.005Z,9.63
2018-05-29T18:20:49.337Z,8.70
2018-05-29T18:23:17.610Z,8.17
2018-05-29T18:25:45.889Z,8.10
2018-05-29T18:28:14.167Z,8.40
2018-05-29T18:30:43.369Z,8.83
2018-05-29T18:33:11.678Z,8.73
2018-05-29T18:35:39.965Z,9.37
2018-05-29T18:38:08.279Z,7.93
2018-05-29T18:40:36.564Z,7.93
2018-05-29T18:43:04.862Z,8.20
2018-05-29T18:45:33.150Z,9.37
2018-05-29T18:48:01.430Z,8.40
2018-05-29T18:50:29.713Z,8.70
2018-05-29T18:52:58.026Z,7.97
2018-05-29T18:55:26.302Z,8.77
2018-05-29T18:57:54.644Z,9.87
2018-05-29T19:00:22.907Z,9.10
2018-05-29T19:02:51.190Z,8.23
2018-05-29T19:05:19.464Z,8.93
2018-05-29T19:07:47.763Z,10.03
2018-05-29T19:10:16.037Z,8.87
2018-05-29T19:12:44.314Z,7.60
2018-05-29T19:15:12.609Z,9.07
2018-05-29T19:17:41.551Z,10.23
2018-05-29T19:20:09.837Z,10.23
2018-05-29T19:22:38.144Z,8.70
2018-05-29T19:25:06.414Z,8.90
2018-05-29T19:27:34.696Z,8.27
2018-05-29T19:30:02.985Z,8.93
2018-05-29T19:32:31.303Z,9.30
2018-05-29T19:34:59.575Z,9.23
2018-05-29T19:37:27.877Z,10.00
2018-05-29T19:39:56.167Z,8.40
2018-05-29T19:42:24.457Z,9.43
2018-05-29T19:44:52.819Z,11.77
2018-05-29T19:47:21.054Z,9.40
2018-05-29T19:49:49.334Z,12.93
2018-05-29T19:52:17.642Z,12.60
2018-05-29T19:54:45.926Z,12.17
2018-05-29T19:57:14.198Z,9.63
2018-05-29T19:59:44.334Z,10.60
2018-05-29T20:02:13.550Z,10.90
2018-05-29T20:04:41.850Z,10.47
2018-05-29T20:07:10.148Z,11.70
2018-05-29T20:09:38.427Z,10.40
2018-05-29T20:12:06.739Z,10.67
2018-05-29T20:14:35.022Z,10.53
2018-05-29T20:17:03.294Z,10.20
2018-05-29T20:19:31.594Z,10.70
2018-05-29T20:21:59.886Z,13.00
2018-05-29T20:24:28.167Z,14.40
2018-05-29T20:26:56.465Z,14.37
2018-05-29T20:29:24.749Z,10.03
2018-05-29T20:31:53.026Z,9.23
2018-05-29T20:34:21.403Z,12.30
2018-05-29T20:36:49.717Z,12.80
2018-05-29T20:39:17.971Z,11.87
2018-05-29T20:41:47.153Z,14.97
2018-05-29T20:44:15.435Z,13.00
2018-05-29T20:46:43.714Z,14.67
2018-05-29T20:49:12.023Z,12.93
2018-05-29T20:51:40.306Z,12.87
2018-05-29T20:54:08.611Z,11.00
2018-05-29T20:56:37.157Z,13.40
2018-05-29T20:59:05.438Z,12.03
2018-05-29T21:01:33.725Z,11.87
2018-05-29T21:04:02.013Z,12.90
2018-05-29T21:06:30.298Z,15.53
2018-05-29T21:08:58.583Z,15.77
2018-05-29T21:11:26.878Z,18.40
2018-05-29T21:13:55.180Z,19.27
2018-05-29T21:16:23.445Z,16.40
2018-05-29T21:18:51.729Z,15.20
2018-05-29T21:21:20.013Z,17.10
2018-05-29T21:23:48.294Z,15.90
2018-05-29T21:26:16.593Z,14.97
2018-05-29T21:28:44.877Z,15.47
2018-05-29T21:31:13.154Z,14.93
2018-05-29T21:33:41.479Z,18.13
2018-05-29T21:36:09.763Z,16.23
2018-05-29T21:38:38.025Z,16.43
2018-05-29T21:41:06.322Z,18.30
2018-05-29T21:43:34.606Z,14.83
2018-05-29T21:46:02.898Z,16.00
2018-05-29T21:48:31.199Z,16.80
2018-05-29T21:50:59.473Z,14.20
2018-05-29T21:53:27.758Z,13.67
2018-05-29T21:55:56.053Z,10.70
2018-05-29T21:58:24.329Z,11.40
2018-05-29T22:00:52.617Z,12.23
2018-05-29T22:03:20.913Z,13.10
2018-05-29T22:05:49.194Z,11.40
2018-05-29T22:08:17.473Z,12.60
2018-05-29T22:10:45.778Z,12.10
2018-05-29T22:13:14.062Z,10.93
2018-05-29T22:15:42.341Z,11.07
2018-05-29T22:18:10.641Z,11.20
2018-05-29T22:20:38.918Z,11.63
2018-05-29T22:23:07.197Z,11.67
2018-05-29T22:25:35.489Z,14.40
2018-05-29T22:28:03.778Z,12.07
2018-05-29T22:30:32.089Z,14.67
2018-05-29T22:33:00.370Z,11.40
2018-05-29T22:35:28.651Z,11.87
2018-05-29T22:37:56.938Z,10.87
2018-05-29T22:40:25.234Z,14.27
2018-05-29T22:42:53.514Z,11.60
2018-05-29T22:45:21.794Z,13.33
2018-05-29T22:47:50.102Z,13.43
2018-05-29T22:50:18.361Z,11.93
2018-05-29T22:52:46.642Z,12.10
2018-05-29T22:55:14.942Z,12.57
2018-05-29T22:57:43.225Z,10.97
2018-05-29T23:00:11.515Z,11.17
2018-05-29T23:02:39.550Z,11.60
2018-05-29T23:05:07.829Z,10.73
2018-05-29T23:07:36.117Z,11.30
2018-05-29T23:10:04.412Z,13.07
2018-05-29T23:12:32.702Z,13.23
2018-05-29T23:15:00.269Z,14.63
2018-05-29T23:17:28.330Z,12.47
2018-05-29T23:19:56.615Z,16.73
2018-05-29T23:22:24.891Z,13.67
2018-05-29T23:24:53.198Z,14.63
2018-05-29T23:27:21.474Z,13.07
2018-05-29T23:29:49.756Z,21.10
2018-05-29T23:32:18.054Z,19.53
2018-05-29T23:34:46.326Z,19.37
2018-05-29T23:37:14.610Z,19.57
2018-05-29T23:39:42.921Z,18.60
2018-05-29T23:42:11.209Z,13.80
2018-05-29T23:44:39.485Z,13.40
2018-05-29T23:47:08.061Z,15.47
2018-05-29T23:49:36.334Z,20.20
2018-05-29T23:52:04.615Z,17.27
2018-05-29T23:54:32.904Z,19.63
2018-05-29T23:57:01.221Z,14.83
2018-05-29T23:59:29.500Z,18.30
